sensor_id;sensor_type;location;lat;lon;timestamp;pressure;altitude;pressure_sealevel;temperature;humidity
4410;BME280;2218;51.408;7.208;2022-08-01T00:02:18;99778.88;;;24.04;53.27
4410;BME280;2218;51.408;7.208;2022-08-01T00:04:45;99770.91;;;24.04;53.09
4410;BME280;2218;51.408;7.208;2022-08-01T00:07:12;99777.19;;;24.03;52.93
4410;BME280;2218;51.408;7.208;2022-08-01T00:09:41;99772.72;;;24.03;53.36
4410;BME280;2218;51.408;7.208;2022-08-01T00:12:08;99777.06;;;24.04;53.43
4410;BME280;2218;51.408;7.208;2022-08-01T00:14:35;99778.88;;;24.04;53.46
4410;BME280;2218;51.408;7.208;2022-08-01T00:17:02;99776.22;;;24.04;53.38
4410;BME280;2218;51.408;7.208;2022-08-01T00:19:29;99776.22;;;24.04;53.34
4410;BME280;2218;51.408;7.208;2022-08-01T00:21:56;99772.72;;;24.03;53.16
4410;BME280;2218;51.408;7.208;2022-08-01T00:24:23;99775.38;;;24.03;53.50
4410;BME280;2218;51.408;7.208;2022-08-01T00:26:52;99763.91;;;24.03;53.67
4410;BME280;2218;51.408;7.208;2022-08-01T00:29:19;99771.88;;;24.03;53.12
4410;BME280;2218;51.408;7.208;2022-08-01T00:31:46;99777.19;;;24.03;53.61
4410;BME280;2218;51.408;7.208;2022-08-01T00:34:13;99774.53;;;24.03;53.44
4410;BME280;2218;51.408;7.208;2022-08-01T00:36:40;99776.34;;;24.02;53.58
4410;BME280;2218;51.408;7.208;2022-08-01T00:39:07;99778.03;;;24.03;53.72
4410;BME280;2218;51.408;7.208;2022-08-01T00:41:34;99778.03;;;24.03;53.51
4410;BME280;2218;51.408;7.208;2022-08-01T00:44:04;99776.34;;;24.02;53.81
4410;BME280;2218;51.408;7.208;2022-08-01T00:46:32;99781.66;;;24.02;53.67
4410;BME280;2218;51.408;7.208;2022-08-01T00:49:00;99775.50;;;24.02;53.70
4410;BME280;2218;51.408;7.208;2022-08-01T00:51:27;99766.69;;;24.01;53.71
4410;BME280;2218;51.408;7.208;2022-08-01T00:53:55;99767.53;;;24.02;53.97
4410;BME280;2218;51.408;7.208;2022-08-01T00:56:25;99771.06;;;24.02;53.89
4410;BME280;2218;51.408;7.208;2022-08-01T00:58:54;99773.81;;;24.01;53.97
4410;BME280;2218;51.408;7.208;2022-08-01T01:01:22;99773.81;;;24.01;53.93
4410;BME280;2218;51.408;7.208;2022-08-01T01:03:51;99771.06;;;24.02;54.23
4410;BME280;2218;51.408;7.208;2022-08-01T01:06:39;99768.50;;;24.01;53.83
4410;BME280;2218;51.408;7.208;2022-08-01T01:09:21;99774.66;;;24.01;53.96
4410;BME280;2218;51.408;7.208;2022-08-01T01:12:02;99765.84;;;24.01;54.01
4410;BME280;2218;51.408;7.208;2022-08-01T01:14:38;99765.03;;;24.00;53.94
4410;BME280;2218;51.408;7.208;2022-08-01T01:17:15;99771.16;;;24.01;54.44
4410;BME280;2218;51.408;7.208;2022-08-01T01:19:48;99768.50;;;24.01;54.28
4410;BME280;2218;51.408;7.208;2022-08-01T01:22:27;99771.16;;;24.01;54.37
4410;BME280;2218;51.408;7.208;2022-08-01T01:25:23;99768.50;;;24.01;54.50
4410;BME280;2218;51.408;7.208;2022-08-01T01:28:05;99770.31;;;24.00;54.27
4410;BME280;2218;51.408;7.208;2022-08-01T01:30:41;99766.84;;;23.99;54.24
4410;BME280;2218;51.408;7.208;2022-08-01T01:33:12;99768.66;;;23.99;54.38
4410;BME280;2218;51.408;7.208;2022-08-01T01:35:47;99771.31;;;23.99;54.40
4410;BME280;2218;51.408;7.208;2022-08-01T01:38:21;99772.16;;;23.99;54.22
4410;BME280;2218;51.408;7.208;2022-08-01T01:40:51;99775.78;;;23.98;54.30
4410;BME280;2218;51.408;7.208;2022-08-01T01:43:21;99772.16;;;23.99;54.47
4410;BME280;2218;51.408;7.208;2022-08-01T01:45:51;99782.75;;;23.99;54.44
4410;BME280;2218;51.408;7.208;2022-08-01T01:48:20;99780.09;;;23.99;54.77
4410;BME280;2218;51.408;7.208;2022-08-01T01:50:51;99781.09;;;23.98;54.40
4410;BME280;2218;51.408;7.208;2022-08-01T01:53:21;99789.06;;;23.98;54.63
4410;BME280;2218;51.408;7.208;2022-08-01T01:55:53;99781.94;;;23.99;54.38
4410;BME280;2218;51.408;7.208;2022-08-01T01:58:23;99777.59;;;23.98;54.85
4410;BME280;2218;51.408;7.208;2022-08-01T02:00:55;99781.94;;;23.99;54.75
4410;BME280;2218;51.408;7.208;2022-08-01T02:03:25;99783.75;;;23.98;54.70
4410;BME280;2218;51.408;7.208;2022-08-01T02:05:54;99786.41;;;23.98;54.74
4410;BME280;2218;51.408;7.208;2022-08-01T02:08:24;99777.59;;;23.98;54.84
4410;BME280;2218;51.408;7.208;2022-08-01T02:10:54;99779.41;;;23.97;54.68
4410;BME280;2218;51.408;7.208;2022-08-01T02:13:41;99782.06;;;23.97;54.69
4410;BME280;2218;51.408;7.208;2022-08-01T02:16:11;99774.94;;;23.98;54.79
4410;BME280;2218;51.408;7.208;2022-08-01T02:18:40;99774.94;;;23.98;54.70
4410;BME280;2218;51.408;7.208;2022-08-01T02:21:12;99779.41;;;23.97;55.05
4410;BME280;2218;51.408;7.208;2022-08-01T02:23:42;99779.41;;;23.97;54.70
4410;BME280;2218;51.408;7.208;2022-08-01T02:26:15;99779.41;;;23.97;55.23
4410;BME280;2218;51.408;7.208;2022-08-01T02:28:49;99774.94;;;23.98;54.84
4410;BME280;2218;51.408;7.208;2022-08-01T02:31:21;99778.59;;;23.97;54.94
4410;BME280;2218;51.408;7.208;2022-08-01T02:33:57;99779.41;;;23.97;54.53
4410;BME280;2218;51.408;7.208;2022-08-01T02:36:26;99773.28;;;23.97;54.68
4410;BME280;2218;51.408;7.208;2022-08-01T02:38:58;99781.25;;;23.97;54.86
4410;BME280;2218;51.408;7.208;2022-08-01T02:41:27;99776.88;;;23.96;55.53
4410;BME280;2218;51.408;7.208;2022-08-01T02:44:01;99773.28;;;23.97;55.43
4410;BME280;2218;51.408;7.208;2022-08-01T02:46:36;99777.72;;;23.96;55.03
4410;BME280;2218;51.408;7.208;2022-08-01T02:49:09;99772.41;;;23.96;55.06
4410;BME280;2218;51.408;7.208;2022-08-01T02:51:40;99776.88;;;23.96;55.25
4410;BME280;2218;51.408;7.208;2022-08-01T02:54:09;99766.25;;;23.96;55.17
4410;BME280;2218;51.408;7.208;2022-08-01T02:56:39;99767.97;;;23.97;55.08
4410;BME280;2218;51.408;7.208;2022-08-01T02:59:13;99760.13;;;23.95;55.19
4410;BME280;2218;51.408;7.208;2022-08-01T03:01:44;99761.78;;;23.96;55.03
4410;BME280;2218;51.408;7.208;2022-08-01T03:04:14;99755.66;;;23.96;55.30
4410;BME280;2218;51.408;7.208;2022-08-01T03:06:44;99755.66;;;23.96;55.51
4410;BME280;2218;51.408;7.208;2022-08-01T03:09:13;99758.44;;;23.94;55.64
4410;BME280;2218;51.408;7.208;2022-08-01T03:11:43;99760.13;;;23.95;55.16
4410;BME280;2218;51.408;7.208;2022-08-01T03:14:12;99760.13;;;23.95;55.37
4410;BME280;2218;51.408;7.208;2022-08-01T03:16:44;99765.56;;;23.94;55.09
4410;BME280;2218;51.408;7.208;2022-08-01T03:19:13;99766.41;;;23.94;55.67
4410;BME280;2218;51.408;7.208;2022-08-01T03:21:44;99774.38;;;23.94;55.02
4410;BME280;2218;51.408;7.208;2022-08-01T03:24:13;99771.72;;;23.94;55.85
4410;BME280;2218;51.408;7.208;2022-08-01T03:26:42;99774.38;;;23.94;55.65
4410;BME280;2218;51.408;7.208;2022-08-01T03:29:16;99776.03;;;23.95;55.62
4410;BME280;2218;51.408;7.208;2022-08-01T03:31:46;99784.00;;;23.95;55.19
4410;BME280;2218;51.408;7.208;2022-08-01T03:34:15;99782.34;;;23.94;55.38
4410;BME280;2218;51.408;7.208;2022-08-01T03:36:47;99789.47;;;23.94;55.20
4410;BME280;2218;51.408;7.208;2022-08-01T03:39:17;99782.34;;;23.94;55.37
4410;BME280;2218;51.408;7.208;2022-08-01T03:41:54;99794.78;;;23.94;55.71
4410;BME280;2218;51.408;7.208;2022-08-01T03:44:27;99788.63;;;23.93;55.53
4410;BME280;2218;51.408;7.208;2022-08-01T03:47:02;99795.59;;;23.94;55.23
4410;BME280;2218;51.408;7.208;2022-08-01T03:49:35;99788.63;;;23.93;55.71
4410;BME280;2218;51.408;7.208;2022-08-01T03:52:06;99790.28;;;23.94;55.61
4410;BME280;2218;51.408;7.208;2022-08-01T03:54:38;99793.09;;;23.93;55.57
4410;BME280;2218;51.408;7.208;2022-08-01T03:57:08;99786.94;;;23.92;55.31
4410;BME280;2218;51.408;7.208;2022-08-01T03:59:37;99783.31;;;23.93;55.85
4410;BME280;2218;51.408;7.208;2022-08-01T04:02:06;99786.94;;;23.92;55.31
4410;BME280;2218;51.408;7.208;2022-08-01T04:04:34;99797.56;;;23.92;55.70
4410;BME280;2218;51.408;7.208;2022-08-01T04:07:01;99793.09;;;23.93;55.62
4410;BME280;2218;51.408;7.208;2022-08-01T04:09:32;99797.56;;;23.92;55.65
4410;BME280;2218;51.408;7.208;2022-08-01T04:12:00;99797.56;;;23.92;56.11
4410;BME280;2218;51.408;7.208;2022-08-01T04:14:28;99793.94;;;23.93;55.79
4410;BME280;2218;51.408;7.208;2022-08-01T04:16:55;99791.41;;;23.92;55.37
4410;BME280;2218;51.408;7.208;2022-08-01T04:19:23;99796.72;;;23.92;55.68
4410;BME280;2218;51.408;7.208;2022-08-01T04:21:51;99802.88;;;23.92;55.40
4410;BME280;2218;51.408;7.208;2022-08-01T04:24:21;99789.72;;;23.91;55.68
4410;BME280;2218;51.408;7.208;2022-08-01T04:26:51;99791.41;;;23.92;55.78
4410;BME280;2218;51.408;7.208;2022-08-01T04:29:21;99806.47;;;23.91;55.61
4410;BME280;2218;51.408;7.208;2022-08-01T04:31:52;99808.19;;;23.92;56.08
4410;BME280;2218;51.408;7.208;2022-08-01T04:34:25;99810.13;;;23.90;56.12
4410;BME280;2218;51.408;7.208;2022-08-01T04:36:56;99809.13;;;23.91;55.99
4410;BME280;2218;51.408;7.208;2022-08-01T04:39:26;99809.13;;;23.91;56.26
4410;BME280;2218;51.408;7.208;2022-08-01T04:41:58;99813.59;;;23.91;56.32
4410;BME280;2218;51.408;7.208;2022-08-01T04:44:26;99814.44;;;23.91;56.11
4410;BME280;2218;51.408;7.208;2022-08-01T04:46:54;99820.72;;;23.90;55.72
4410;BME280;2218;51.408;7.208;2022-08-01T04:49:23;99826.03;;;23.90;55.92
4410;BME280;2218;51.408;7.208;2022-08-01T04:51:51;99818.91;;;23.91;55.92
4410;BME280;2218;51.408;7.208;2022-08-01T04:54:24;99825.06;;;23.91;56.12
4410;BME280;2218;51.408;7.208;2022-08-01T04:56:51;99832.19;;;23.91;55.95
4410;BME280;2218;51.408;7.208;2022-08-01T04:59:19;99837.50;;;23.91;56.33
4410;BME280;2218;51.408;7.208;2022-08-01T05:02:04;99834.00;;;23.90;55.92
4410;BME280;2218;51.408;7.208;2022-08-01T05:04:32;99832.19;;;23.91;56.08
4410;BME280;2218;51.408;7.208;2022-08-01T05:06:59;99833.03;;;23.91;56.28
4410;BME280;2218;51.408;7.208;2022-08-01T05:09:27;99833.03;;;23.91;56.46
4410;BME280;2218;51.408;7.208;2022-08-01T05:11:54;99831.34;;;23.90;56.41
4410;BME280;2218;51.408;7.208;2022-08-01T05:14:24;99833.03;;;23.91;56.34
4410;BME280;2218;51.408;7.208;2022-08-01T05:16:51;99834.84;;;23.91;56.38
4410;BME280;2218;51.408;7.208;2022-08-01T05:19:18;99836.66;;;23.90;56.21
4410;BME280;2218;51.408;7.208;2022-08-01T05:21:47;99841.97;;;23.90;56.58
4410;BME280;2218;51.408;7.208;2022-08-01T05:24:14;99846.44;;;23.90;56.15
4410;BME280;2218;51.408;7.208;2022-08-01T05:26:41;99842.94;;;23.89;56.26
4410;BME280;2218;51.408;7.208;2022-08-01T05:29:08;99840.28;;;23.89;56.19
4410;BME280;2218;51.408;7.208;2022-08-01T05:31:35;99847.28;;;23.90;56.17
4410;BME280;2218;51.408;7.208;2022-08-01T05:34:02;99857.06;;;23.90;55.72
4410;BME280;2218;51.408;7.208;2022-08-01T05:36:29;99852.59;;;23.90;56.06
4410;BME280;2218;51.408;7.208;2022-08-01T05:38:57;99851.75;;;23.90;56.19
4410;BME280;2218;51.408;7.208;2022-08-01T05:41:24;99845.59;;;23.89;56.11
4410;BME280;2218;51.408;7.208;2022-08-01T05:43:52;99858.72;;;23.91;56.72
4410;BME280;2218;51.408;7.208;2022-08-01T05:46:19;99856.22;;;23.89;56.38
4410;BME280;2218;51.408;7.208;2022-08-01T05:48:45;99857.88;;;23.90;56.41
4410;BME280;2218;51.408;7.208;2022-08-01T05:51:12;99858.88;;;23.89;56.58
4410;BME280;2218;51.408;7.208;2022-08-01T05:53:40;99865.00;;;23.90;56.74
4410;BME280;2218;51.408;7.208;2022-08-01T05:56:08;99865.84;;;23.90;56.46
4410;BME280;2218;51.408;7.208;2022-08-01T05:58:36;99861.53;;;23.89;56.27
4410;BME280;2218;51.408;7.208;2022-08-01T06:01:03;99860.53;;;23.90;56.25
4410;BME280;2218;51.408;7.208;2022-08-01T06:03:29;99865.84;;;23.90;56.49
4410;BME280;2218;51.408;7.208;2022-08-01T06:05:59;99867.66;;;23.90;56.12
4410;BME280;2218;51.408;7.208;2022-08-01T06:08:26;99862.50;;;23.88;56.44
4410;BME280;2218;51.408;7.208;2022-08-01T06:10:53;99871.31;;;23.89;56.28
4410;BME280;2218;51.408;7.208;2022-08-01T06:13:22;99871.31;;;23.89;56.46
4410;BME280;2218;51.408;7.208;2022-08-01T06:15:49;99872.97;;;23.90;56.78
4410;BME280;2218;51.408;7.208;2022-08-01T06:18:17;99874.78;;;23.89;56.60
4410;BME280;2218;51.408;7.208;2022-08-01T06:20:44;99870.31;;;23.90;56.48
4410;BME280;2218;51.408;7.208;2022-08-01T06:23:11;99869.50;;;23.89;56.46
4410;BME280;2218;51.408;7.208;2022-08-01T06:25:39;99867.66;;;23.90;56.47
4410;BME280;2218;51.408;7.208;2022-08-01T06:28:05;99867.66;;;23.90;56.10
4410;BME280;2218;51.408;7.208;2022-08-01T06:30:34;99868.50;;;23.90;55.90
4410;BME280;2218;51.408;7.208;2022-08-01T06:33:01;99866.84;;;23.89;56.10
4410;BME280;2218;51.408;7.208;2022-08-01T06:35:29;99876.47;;;23.90;56.62
4410;BME280;2218;51.408;7.208;2022-08-01T06:37:57;99877.44;;;23.89;56.46
4410;BME280;2218;51.408;7.208;2022-08-01T06:40:24;99874.78;;;23.89;56.45
4410;BME280;2218;51.408;7.208;2022-08-01T06:42:51;99878.28;;;23.90;56.45
4410;BME280;2218;51.408;7.208;2022-08-01T06:45:18;99866.84;;;23.89;56.76
4410;BME280;2218;51.408;7.208;2022-08-01T06:47:49;99876.47;;;23.90;56.21
4410;BME280;2218;51.408;7.208;2022-08-01T06:50:16;99874.78;;;23.89;56.10
4410;BME280;2218;51.408;7.208;2022-08-01T06:52:43;99872.13;;;23.89;56.59
4410;BME280;2218;51.408;7.208;2022-08-01T06:55:10;99875.63;;;23.90;56.67
4410;BME280;2218;51.408;7.208;2022-08-01T06:57:46;99879.13;;;23.90;56.12
4410;BME280;2218;51.408;7.208;2022-08-01T07:00:14;99877.44;;;23.89;56.37
4410;BME280;2218;51.408;7.208;2022-08-01T07:02:44;99880.81;;;23.91;56.38
4410;BME280;2218;51.408;7.208;2022-08-01T07:05:13;99875.50;;;23.91;56.26
4410;BME280;2218;51.408;7.208;2022-08-01T07:07:40;99868.50;;;23.90;56.28
4410;BME280;2218;51.408;7.208;2022-08-01T07:10:08;99867.41;;;23.93;56.30
4410;BME280;2218;51.408;7.208;2022-08-01T07:12:36;99863.94;;;23.92;55.87
4410;BME280;2218;51.408;7.208;2022-08-01T07:15:04;99861.38;;;23.91;56.22
4410;BME280;2218;51.408;7.208;2022-08-01T07:17:32;99862.22;;;23.91;56.39
4410;BME280;2218;51.408;7.208;2022-08-01T07:19:59;99861.38;;;23.91;56.25
4410;BME280;2218;51.408;7.208;2022-08-01T07:22:27;99866.59;;;23.92;56.53
4410;BME280;2218;51.408;7.208;2022-08-01T07:24:54;99865.59;;;23.93;56.10
4410;BME280;2218;51.408;7.208;2022-08-01T07:27:21;99868.25;;;23.93;56.18
4410;BME280;2218;51.408;7.208;2022-08-01T07:29:48;99855.69;;;23.95;56.28
4410;BME280;2218;51.408;7.208;2022-08-01T07:32:15;99863.63;;;23.95;56.31
4410;BME280;2218;51.408;7.208;2022-08-01T07:34:42;99862.66;;;23.96;55.99
4410;BME280;2218;51.408;7.208;2022-08-01T07:37:09;99862.66;;;23.96;56.17
4410;BME280;2218;51.408;7.208;2022-08-01T07:39:38;99867.97;;;23.96;55.75
4410;BME280;2218;51.408;7.208;2022-08-01T07:42:05;99872.44;;;23.96;56.04
4410;BME280;2218;51.408;7.208;2022-08-01T07:44:32;99874.00;;;23.98;55.90
4410;BME280;2218;51.408;7.208;2022-08-01T07:46:59;99867.03;;;23.97;56.28
4410;BME280;2218;51.408;7.208;2022-08-01T07:49:26;99872.31;;;23.97;55.84
4410;BME280;2218;51.408;7.208;2022-08-01T07:51:53;99872.31;;;23.97;55.88
4410;BME280;2218;51.408;7.208;2022-08-01T07:54:20;99863.38;;;23.98;55.97
4410;BME280;2218;51.408;7.208;2022-08-01T07:56:50;99871.34;;;23.98;55.87
4410;BME280;2218;51.408;7.208;2022-08-01T07:59:17;99873.88;;;24.00;56.29
4410;BME280;2218;51.408;7.208;2022-08-01T08:01:48;99880.84;;;24.01;55.68
4410;BME280;2218;51.408;7.208;2022-08-01T08:04:16;99874.59;;;24.02;55.56
4410;BME280;2218;51.408;7.208;2022-08-01T08:06:43;99880.72;;;24.03;55.66
4410;BME280;2218;51.408;7.208;2022-08-01T08:09:10;99881.56;;;24.03;55.73
4410;BME280;2218;51.408;7.208;2022-08-01T08:11:37;99884.22;;;24.03;55.96
4410;BME280;2218;51.408;7.208;2022-08-01T08:14:06;99881.44;;;24.05;55.70
4410;BME280;2218;51.408;7.208;2022-08-01T08:16:32;99883.25;;;24.04;55.62
4410;BME280;2218;51.408;7.208;2022-08-01T08:18:59;99884.09;;;24.05;55.41
4410;BME280;2218;51.408;7.208;2022-08-01T08:21:26;99884.09;;;24.05;55.88
4410;BME280;2218;51.408;7.208;2022-08-01T08:23:54;99883.09;;;24.06;55.56
4410;BME280;2218;51.408;7.208;2022-08-01T08:26:38;99889.25;;;24.06;55.63
4410;BME280;2218;51.408;7.208;2022-08-01T08:29:08;99885.75;;;24.06;55.53
4410;BME280;2218;51.408;7.208;2022-08-01T08:31:35;99890.09;;;24.07;55.83
4410;BME280;2218;51.408;7.208;2022-08-01T08:34:02;99890.97;;;24.07;55.63
4410;BME280;2218;51.408;7.208;2022-08-01T08:36:29;99899.75;;;24.08;55.41
4410;BME280;2218;51.408;7.208;2022-08-01T08:38:56;99897.09;;;24.08;55.68
4410;BME280;2218;51.408;7.208;2022-08-01T08:41:23;99893.47;;;24.09;55.26
4410;BME280;2218;51.408;7.208;2022-08-01T08:43:50;99901.44;;;24.09;55.65
4410;BME280;2218;51.408;7.208;2022-08-01T08:46:20;99898.78;;;24.09;55.30
4410;BME280;2218;51.408;7.208;2022-08-01T08:48:47;99905.78;;;24.10;55.59
4410;BME280;2218;51.408;7.208;2022-08-01T08:51:18;99901.44;;;24.09;55.51
4410;BME280;2218;51.408;7.208;2022-08-01T08:53:46;99911.06;;;24.10;55.42
4410;BME280;2218;51.408;7.208;2022-08-01T08:56:14;99906.59;;;24.10;55.58
4410;BME280;2218;51.408;7.208;2022-08-01T08:58:44;99903.13;;;24.10;55.10
4410;BME280;2218;51.408;7.208;2022-08-01T09:01:12;99905.78;;;24.10;55.32
4410;BME280;2218;51.408;7.208;2022-08-01T09:03:40;99907.44;;;24.11;55.36
4410;BME280;2218;51.408;7.208;2022-08-01T09:06:07;99910.09;;;24.11;55.14
4410;BME280;2218;51.408;7.208;2022-08-01T09:08:35;99909.16;;;24.12;55.53
4410;BME280;2218;51.408;7.208;2022-08-01T09:11:02;99907.34;;;24.12;55.37
4410;BME280;2218;51.408;7.208;2022-08-01T09:13:30;99919.78;;;24.12;55.41
4410;BME280;2218;51.408;7.208;2022-08-01T09:15:57;99917.13;;;24.12;54.87
4410;BME280;2218;51.408;7.208;2022-08-01T09:18:32;99914.47;;;24.12;55.12
4410;BME280;2218;51.408;7.208;2022-08-01T09:21:24;99919.78;;;24.12;54.98
4410;BME280;2218;51.408;7.208;2022-08-01T09:23:54;99926.75;;;24.13;55.07
4410;BME280;2218;51.408;7.208;2022-08-01T09:26:30;99928.44;;;24.14;54.92
4410;BME280;2218;51.408;7.208;2022-08-01T09:28:59;99929.28;;;24.14;54.75
4410;BME280;2218;51.408;7.208;2022-08-01T09:31:29;99927.59;;;24.13;54.78
4410;BME280;2218;51.408;7.208;2022-08-01T09:33:58;99922.28;;;24.13;55.08
4410;BME280;2218;51.408;7.208;2022-08-01T09:36:44;99932.91;;;24.13;55.00
4410;BME280;2218;51.408;7.208;2022-08-01T09:39:15;99940.72;;;24.15;55.29
4410;BME280;2218;51.408;7.208;2022-08-01T09:41:42;99942.41;;;24.16;55.26
4410;BME280;2218;51.408;7.208;2022-08-01T09:44:09;99929.97;;;24.16;54.92
4410;BME280;2218;51.408;7.208;2022-08-01T09:46:50;99935.28;;;24.16;55.10
4410;BME280;2218;51.408;7.208;2022-08-01T09:49:28;99933.50;;;24.17;54.90
4410;BME280;2218;51.408;7.208;2022-08-01T09:51:59;99937.09;;;24.16;55.15
4410;BME280;2218;51.408;7.208;2022-08-01T09:54:32;99938.81;;;24.17;55.14
4410;BME280;2218;51.408;7.208;2022-08-01T09:57:15;99944.94;;;24.17;55.28
4410;BME280;2218;51.408;7.208;2022-08-01T09:59:44;99944.13;;;24.17;55.09
4410;BME280;2218;51.408;7.208;2022-08-01T10:02:14;99940.59;;;24.16;55.02
4410;BME280;2218;51.408;7.208;2022-08-01T10:04:50;99939.75;;;24.16;54.80
4410;BME280;2218;51.408;7.208;2022-08-01T10:07:19;99936.97;;;24.17;54.93
4410;BME280;2218;51.408;7.208;2022-08-01T10:09:46;99941.47;;;24.17;54.88
4410;BME280;2218;51.408;7.208;2022-08-01T10:12:15;99944.13;;;24.17;54.89
4410;BME280;2218;51.408;7.208;2022-08-01T10:14:46;99940.47;;;24.18;54.96
4410;BME280;2218;51.408;7.208;2022-08-01T10:17:16;99930.69;;;24.18;54.85
4410;BME280;2218;51.408;7.208;2022-08-01T10:19:45;99936.84;;;24.19;54.80
4410;BME280;2218;51.408;7.208;2022-08-01T10:22:14;99932.50;;;24.18;54.97
4410;BME280;2218;51.408;7.208;2022-08-01T10:24:46;99930.69;;;24.18;54.57
4410;BME280;2218;51.408;7.208;2022-08-01T10:27:16;99939.50;;;24.19;54.74
4410;BME280;2218;51.408;7.208;2022-08-01T10:29:50;99932.50;;;24.18;54.91
4410;BME280;2218;51.408;7.208;2022-08-01T10:32:19;99934.19;;;24.19;54.89
4410;BME280;2218;51.408;7.208;2022-08-01T10:34:46;99934.19;;;24.19;54.82
4410;BME280;2218;51.408;7.208;2022-08-01T10:37:14;99944.81;;;24.19;54.75
4410;BME280;2218;51.408;7.208;2022-08-01T10:39:44;99935.16;;;24.18;55.03
4410;BME280;2218;51.408;7.208;2022-08-01T10:42:12;99943.00;;;24.19;54.53
4410;BME280;2218;51.408;7.208;2022-08-01T10:44:40;99943.00;;;24.19;54.86
4410;BME280;2218;51.408;7.208;2022-08-01T10:47:11;99949.13;;;24.20;54.98
4410;BME280;2218;51.408;7.208;2022-08-01T10:49:47;99948.31;;;24.19;54.95
4410;BME280;2218;51.408;7.208;2022-08-01T10:52:15;99943.81;;;24.20;54.67
4410;BME280;2218;51.408;7.208;2022-08-01T10:54:44;99946.47;;;24.20;54.57
4410;BME280;2218;51.408;7.208;2022-08-01T10:57:12;99942.16;;;24.19;54.68
4410;BME280;2218;51.408;7.208;2022-08-01T10:59:49;99943.81;;;24.20;54.91
4410;BME280;2218;51.408;7.208;2022-08-01T11:02:27;99949.13;;;24.20;54.91
4410;BME280;2218;51.408;7.208;2022-08-01T11:05:00;99951.78;;;24.20;54.37
4410;BME280;2218;51.408;7.208;2022-08-01T11:07:49;99945.50;;;24.21;54.67
4410;BME280;2218;51.408;7.208;2022-08-01T11:10:34;99945.50;;;24.21;54.81
4410;BME280;2218;51.408;7.208;2022-08-01T11:13:03;99956.13;;;24.21;54.93
4410;BME280;2218;51.408;7.208;2022-08-01T11:15:33;99949.97;;;24.20;54.73
4410;BME280;2218;51.408;7.208;2022-08-01T11:18:03;99946.34;;;24.21;54.67
4410;BME280;2218;51.408;7.208;2022-08-01T11:20:32;99949.97;;;24.20;54.80
4410;BME280;2218;51.408;7.208;2022-08-01T11:23:27;99951.66;;;24.21;54.93
4410;BME280;2218;51.408;7.208;2022-08-01T11:26:13;99947.22;;;24.22;54.49
4410;BME280;2218;51.408;7.208;2022-08-01T11:28:44;99952.53;;;24.22;54.83
4410;BME280;2218;51.408;7.208;2022-08-01T11:31:29;99947.22;;;24.22;55.02
4410;BME280;2218;51.408;7.208;2022-08-01T11:33:58;99949.88;;;24.22;54.74
4410;BME280;2218;51.408;7.208;2022-08-01T11:36:26;99941.91;;;24.22;54.67
4410;BME280;2218;51.408;7.208;2022-08-01T11:39:15;99942.75;;;24.22;54.40
4410;BME280;2218;51.408;7.208;2022-08-01T11:41:46;99933.78;;;24.23;54.24
4410;BME280;2218;51.408;7.208;2022-08-01T11:44:22;99933.78;;;24.23;54.45
4410;BME280;2218;51.408;7.208;2022-08-01T11:46:58;99928.47;;;24.23;54.85
4410;BME280;2218;51.408;7.208;2022-08-01T11:49:54;99933.78;;;24.23;54.77
4410;BME280;2218;51.408;7.208;2022-08-01T11:52:29;99936.44;;;24.23;54.42
4410;BME280;2218;51.408;7.208;2022-08-01T11:55:07;99938.25;;;24.23;55.12
4410;BME280;2218;51.408;7.208;2022-08-01T11:57:37;99932.94;;;24.23;54.91
4410;BME280;2218;51.408;7.208;2022-08-01T12:00:11;99939.25;;;24.22;54.81
4410;BME280;2218;51.408;7.208;2022-08-01T12:02:39;99940.91;;;24.23;54.63
4410;BME280;2218;51.408;7.208;2022-08-01T12:05:09;99944.41;;;24.23;54.75
4410;BME280;2218;51.408;7.208;2022-08-01T12:07:39;99939.09;;;24.23;54.94
4410;BME280;2218;51.408;7.208;2022-08-01T12:10:09;99943.44;;;24.24;54.94
4410;BME280;2218;51.408;7.208;2022-08-01T12:12:44;99941.63;;;24.25;54.68
4410;BME280;2218;51.408;7.208;2022-08-01T12:15:12;99944.28;;;24.25;54.78
4410;BME280;2218;51.408;7.208;2022-08-01T12:17:41;99944.28;;;24.25;54.91
4410;BME280;2218;51.408;7.208;2022-08-01T12:20:12;99947.75;;;24.25;54.37
4410;BME280;2218;51.408;7.208;2022-08-01T12:22:40;99941.63;;;24.25;54.75
4410;BME280;2218;51.408;7.208;2022-08-01T12:25:10;99945.09;;;24.25;54.55
4410;BME280;2218;51.408;7.208;2022-08-01T12:27:40;99945.94;;;24.26;54.71
4410;BME280;2218;51.408;7.208;2022-08-01T12:30:10;99952.25;;;24.25;54.78
4410;BME280;2218;51.408;7.208;2022-08-01T12:32:40;99953.91;;;24.26;54.65
4410;BME280;2218;51.408;7.208;2022-08-01T12:35:09;99956.72;;;24.24;54.79
4410;BME280;2218;51.408;7.208;2022-08-01T12:37:37;99952.25;;;24.25;54.77
4410;BME280;2218;51.408;7.208;2022-08-01T12:40:12;99948.59;;;24.26;54.79
4410;BME280;2218;51.408;7.208;2022-08-01T12:42:43;99954.75;;;24.27;54.81
4410;BME280;2218;51.408;7.208;2022-08-01T12:45:15;99951.25;;;24.26;54.98
4410;BME280;2218;51.408;7.208;2022-08-01T12:47:43;99944.13;;;24.27;54.69
4410;BME280;2218;51.408;7.208;2022-08-01T12:50:13;99948.59;;;24.26;55.07
4410;BME280;2218;51.408;7.208;2022-08-01T12:52:41;99948.59;;;24.26;54.74
4410;BME280;2218;51.408;7.208;2022-08-01T12:55:13;99945.00;;;24.27;54.92
4410;BME280;2218;51.408;7.208;2022-08-01T12:57:44;99949.44;;;24.27;54.41
4410;BME280;2218;51.408;7.208;2022-08-01T13:00:22;99944.00;;;24.28;54.57
4410;BME280;2218;51.408;7.208;2022-08-01T13:03:00;99941.34;;;24.28;55.02
4410;BME280;2218;51.408;7.208;2022-08-01T13:05:27;99944.13;;;24.27;54.47
4410;BME280;2218;51.408;7.208;2022-08-01T13:07:54;99943.28;;;24.26;54.70
4410;BME280;2218;51.408;7.208;2022-08-01T13:10:27;99945.94;;;24.26;54.61
4410;BME280;2218;51.408;7.208;2022-08-01T13:12:57;99953.91;;;24.26;54.63
4410;BME280;2218;51.408;7.208;2022-08-01T13:15:29;99952.97;;;24.27;54.99
4410;BME280;2218;51.408;7.208;2022-08-01T13:18:00;99949.34;;;24.28;54.82
4410;BME280;2218;51.408;7.208;2022-08-01T13:20:31;99941.47;;;24.27;54.89
4410;BME280;2218;51.408;7.208;2022-08-01T13:23:14;99955.63;;;24.27;54.67
4410;BME280;2218;51.408;7.208;2022-08-01T13:25:50;99952.97;;;24.27;54.77
4410;BME280;2218;51.408;7.208;2022-08-01T13:28:23;99944.84;;;24.29;54.36
4410;BME280;2218;51.408;7.208;2022-08-01T13:30:57;99952.00;;;24.28;55.23
4410;BME280;2218;51.408;7.208;2022-08-01T13:33:26;99943.03;;;24.29;54.57
4410;BME280;2218;51.408;7.208;2022-08-01T13:35:56;99951.00;;;24.29;54.60
4410;BME280;2218;51.408;7.208;2022-08-01T13:38:23;99946.66;;;24.28;54.63
4410;BME280;2218;51.408;7.208;2022-08-01T13:41:04;99957.28;;;24.28;54.61